createdAt,value
2023-04-17T00:01:16.689Z,9.69
2023-04-17T00:06:19.056Z,9.70
2023-04-17T00:11:21.606Z,9.64
2023-04-17T00:16:23.001Z,9.75
2023-04-17T00:21:24.346Z,9.38
2023-04-17T00:26:25.819Z,9.43
2023-04-17T00:31:27.073Z,9.56
2023-04-17T00:36:28.307Z,9.42
2023-04-17T00:41:29.617Z,9.04
2023-04-17T00:46:31.416Z,9.13
2023-04-17T00:51:32.650Z,9.10
2023-04-17T00:56:33.888Z,9.15
2023-04-17T01:01:35.673Z,8.97
2023-04-17T01:06:37.002Z,9.10
2023-04-17T01:11:39.246Z,9.06
2023-04-17T01:16:40.578Z,9.10
2023-04-17T01:21:42.153Z,9.12
2023-04-17T01:26:43.670Z,9.09
2023-04-17T01:31:44.895Z,9.09
2023-04-17T01:36:46.333Z,8.97
2023-04-17T01:41:47.672Z,9.04
2023-04-17T01:46:48.948Z,8.79
2023-04-17T01:51:50.180Z,8.80
2023-04-17T01:56:51.455Z,8.83
2023-04-17T02:01:52.762Z,8.75
2023-04-17T02:06:54.128Z,8.64
2023-04-17T02:11:56.906Z,8.56
2023-04-17T02:16:58.282Z,8.61
2023-04-17T02:21:59.545Z,8.61
2023-04-17T02:27:00.840Z,8.48
2023-04-17T02:32:02.257Z,8.17
2023-04-17T02:37:03.544Z,7.99
2023-04-17T02:42:04.820Z,8.03
2023-04-17T02:47:06.074Z,8.04
2023-04-17T02:52:07.460Z,8.04
2023-04-17T02:57:08.685Z,7.86
2023-04-17T03:02:10.086Z,7.86
2023-04-17T03:07:11.755Z,7.86
2023-04-17T03:12:13.030Z,7.82
2023-04-17T03:17:14.238Z,7.66
2023-04-17T03:22:15.593Z,7.67
2023-04-17T03:27:16.926Z,7.76
2023-04-17T03:32:18.364Z,7.70
2023-04-17T03:37:19.822Z,7.73
2023-04-17T03:42:21.166Z,7.64
2023-04-17T03:47:22.465Z,7.67
2023-04-17T03:52:23.741Z,7.53
2023-04-17T03:57:25.021Z,7.49
2023-04-17T04:02:26.405Z,7.48
2023-04-17T04:07:27.826Z,7.41
2023-04-17T04:12:29.111Z,7.46
2023-04-17T04:17:30.405Z,7.29
2023-04-17T04:22:31.741Z,7.15
2023-04-17T04:27:33.087Z,7.10
2023-04-17T04:32:34.387Z,7.14
2023-04-17T04:37:36.026Z,7.16
2023-04-17T04:42:37.839Z,7.40
2023-04-17T04:47:39.118Z,7.48
2023-04-17T04:52:40.430Z,7.54
2023-04-17T04:57:41.995Z,7.65
2023-04-17T05:02:43.435Z,7.61
2023-04-17T05:07:44.816Z,7.88
2023-04-17T05:12:46.138Z,8.02
2023-04-17T05:17:47.915Z,8.17
2023-04-17T05:22:49.797Z,8.16
2023-04-17T05:27:51.098Z,8.45
2023-04-17T05:32:53.975Z,8.58
2023-04-17T05:37:56.103Z,8.64
2023-04-17T05:42:57.341Z,8.51
2023-04-17T05:47:58.606Z,8.40
2023-04-17T05:52:59.932Z,8.52
2023-04-17T05:58:10.545Z,8.18
2023-04-17T06:03:23.961Z,8.60
2023-04-17T06:08:26.135Z,8.77
2023-04-17T06:13:27.463Z,8.82
2023-04-17T06:18:28.759Z,9.01
2023-04-17T06:23:29.974Z,8.37
2023-04-17T06:28:32.260Z,7.92
2023-04-17T06:33:33.559Z,8.41
2023-04-17T06:38:34.857Z,8.13
2023-04-17T06:43:36.244Z,8.32
2023-04-17T06:48:37.483Z,8.93
2023-04-17T06:53:38.883Z,9.11
2023-04-17T06:58:48.900Z,9.26
2023-04-17T07:03:50.370Z,9.40
2023-04-17T07:08:53.501Z,9.54
2023-04-17T07:13:56.274Z,10.08
2023-04-17T07:18:57.552Z,10.45
2023-04-17T07:23:58.835Z,10.71
2023-04-17T07:29:00.333Z,11.33
2023-04-17T07:34:01.616Z,11.41
2023-04-17T07:39:03.269Z,11.96
2023-04-17T07:44:05.796Z,12.15
2023-04-17T07:49:07.041Z,11.70
2023-04-17T07:54:08.318Z,11.46
2023-04-17T07:59:09.830Z,11.63
2023-04-17T08:04:11.571Z,11.73
2023-04-17T08:09:13.256Z,11.77
2023-04-17T08:14:16.309Z,11.95
2023-04-17T08:19:17.637Z,12.73
2023-04-17T08:24:20.034Z,13.46
2023-04-17T08:29:22.691Z,14.08
2023-04-17T08:34:23.932Z,13.93
2023-04-17T08:39:25.196Z,14.32
2023-04-17T08:44:26.645Z,13.94
2023-04-17T08:49:28.369Z,13.89
2023-04-17T08:54:29.682Z,14.44
2023-04-17T08:59:31.053Z,14.28
2023-04-17T09:04:32.447Z,14.15
2023-04-17T09:09:33.899Z,14.91
2023-04-17T09:14:35.209Z,15.03
2023-04-17T09:19:36.617Z,15.67
2023-04-17T09:24:37.989Z,15.58
2023-04-17T09:29:39.316Z,15.57
2023-04-17T09:34:40.565Z,16.36
2023-04-17T09:39:43.005Z,16.47
2023-04-17T09:44:45.012Z,16.50
2023-04-17T09:49:49.544Z,16.97
2023-04-17T09:54:54.174Z,15.78
2023-04-17T09:59:59.560Z,14.93
2023-04-17T10:05:00.854Z,14.62
2023-04-17T10:10:03.255Z,14.15
2023-04-17T10:15:04.879Z,13.99
2023-04-17T10:20:06.125Z,13.02
2023-04-17T10:25:07.431Z,13.06
2023-04-17T10:30:12.930Z,13.22
2023-04-17T10:35:14.260Z,12.68
2023-04-17T10:40:20.841Z,13.05
2023-04-17T10:45:24.798Z,13.23
2023-04-17T10:50:26.048Z,13.31
2023-04-17T10:55:27.415Z,12.90
2023-04-17T11:00:32.224Z,13.18
2023-04-17T11:05:34.523Z,13.80
2023-04-17T11:10:36.378Z,14.22
2023-04-17T11:15:39.721Z,14.31
2023-04-17T11:20:40.974Z,14.04
2023-04-17T11:25:43.043Z,15.68
2023-04-17T11:30:45.331Z,15.78
2023-04-17T11:35:47.197Z,15.65
2023-04-17T11:40:48.664Z,15.84
2023-04-17T11:45:49.982Z,15.25
2023-04-17T11:50:51.358Z,14.20
2023-04-17T11:55:52.630Z,13.74
2023-04-17T12:00:56.102Z,13.39
2023-04-17T12:05:57.543Z,13.58
2023-04-17T12:10:58.843Z,13.64
2023-04-17T12:16:00.260Z,13.47
2023-04-17T12:21:01.657Z,14.62
2023-04-17T12:26:03.133Z,16.32
2023-04-17T12:31:04.737Z,15.64
2023-04-17T12:36:06.784Z,15.25
2023-04-17T12:41:08.124Z,16.87
2023-04-17T12:46:09.452Z,17.74
2023-04-17T12:51:10.877Z,17.69
2023-04-17T12:56:12.167Z,17.11
2023-04-17T13:01:13.676Z,16.99
2023-04-17T13:06:16.861Z,17.89
2023-04-17T13:11:18.237Z,19.30
2023-04-17T13:16:19.581Z,18.78
2023-04-17T13:21:20.872Z,17.82
2023-04-17T13:26:22.157Z,17.05
2023-04-17T13:31:25.735Z,17.43
2023-04-17T13:36:27.732Z,17.84
2023-04-17T13:41:29.506Z,17.71
2023-04-17T13:46:31.929Z,17.14
2023-04-17T13:51:33.214Z,17.04
2023-04-17T13:56:34.457Z,16.94
2023-04-17T14:01:35.945Z,16.64
2023-04-17T14:06:37.202Z,16.59
2023-04-17T14:11:38.473Z,16.41
2023-04-17T14:16:39.775Z,16.54
2023-04-17T14:21:40.996Z,16.82
2023-04-17T14:26:42.574Z,16.12
2023-04-17T14:31:43.873Z,15.83
2023-04-17T14:36:45.306Z,16.44
2023-04-17T14:41:46.617Z,17.20
2023-04-17T14:46:48.671Z,16.96
2023-04-17T14:51:49.953Z,16.81
2023-04-17T14:56:51.265Z,17.14
2023-04-17T15:01:52.702Z,16.72
2023-04-17T15:06:54.130Z,16.38
2023-04-17T15:11:56.797Z,17.51
2023-04-17T15:16:59.003Z,17.25
2023-04-17T15:22:00.495Z,16.96
2023-04-17T15:27:01.869Z,17.22
2023-04-17T15:32:03.299Z,16.84
2023-04-17T15:37:04.563Z,16.93
2023-04-17T15:42:09.853Z,17.35
2023-04-17T15:47:11.212Z,17.93
2023-04-17T15:52:12.490Z,18.32
2023-04-17T15:57:13.720Z,17.97
2023-04-17T16:02:15.261Z,17.10
2023-04-17T16:07:16.731Z,16.32
2023-04-17T16:12:18.076Z,16.90
2023-04-17T16:17:19.432Z,16.64
2023-04-17T16:22:20.805Z,16.55
2023-04-17T16:27:22.277Z,15.93
2023-04-17T16:32:24.530Z,15.45
2023-04-17T16:37:25.810Z,15.55
2023-04-17T16:42:27.074Z,15.56
2023-04-17T16:47:29.481Z,15.25
2023-04-17T16:52:30.864Z,15.17
2023-04-17T16:57:32.146Z,14.70
2023-04-17T17:02:33.456Z,14.43
2023-04-17T17:07:34.811Z,14.21
2023-04-17T17:12:36.125Z,14.28
2023-04-17T17:17:37.868Z,14.51
2023-04-17T17:22:39.198Z,14.37
2023-04-17T17:27:40.446Z,14.12
2023-04-17T17:32:41.811Z,13.86
2023-04-17T17:37:43.259Z,13.46
2023-04-17T17:42:45.287Z,13.24
2023-04-17T17:47:46.699Z,13.30
2023-04-17T17:52:48.381Z,13.10
2023-04-17T17:57:49.920Z,13.20
2023-04-17T18:02:51.287Z,12.88
2023-04-17T18:07:52.663Z,12.59
2023-04-17T18:12:54.164Z,12.04
2023-04-17T18:17:55.730Z,11.69
2023-04-17T18:22:57.708Z,11.99
2023-04-17T18:27:59.103Z,11.99
2023-04-17T18:33:00.922Z,11.87
2023-04-17T18:38:04.396Z,11.32
2023-04-17T18:43:06.085Z,11.45
2023-04-17T18:48:07.501Z,11.84
2023-04-17T18:53:08.773Z,11.67
2023-04-17T18:58:10.041Z,11.76
2023-04-17T19:03:11.378Z,11.51
2023-04-17T19:08:13.896Z,11.25
2023-04-17T19:13:15.109Z,11.36
2023-04-17T19:18:16.374Z,11.33
2023-04-17T19:23:17.571Z,11.34
2023-04-17T19:28:18.853Z,11.40
2023-04-17T19:33:20.238Z,11.58
2023-04-17T19:38:21.558Z,11.43
2023-04-17T19:43:22.863Z,11.35
2023-04-17T19:48:24.166Z,11.74
2023-04-17T19:53:25.624Z,11.96
2023-04-17T19:58:26.823Z,11.70
2023-04-17T20:03:28.324Z,11.50
2023-04-17T20:08:29.732Z,11.08
2023-04-17T20:13:31.055Z,10.96
2023-04-17T20:18:33.732Z,10.76
2023-04-17T20:23:34.985Z,10.95
2023-04-17T20:28:36.256Z,10.36
2023-04-17T20:33:37.553Z,10.51
2023-04-17T20:38:38.808Z,10.56
2023-04-17T20:43:40.193Z,10.32
2023-04-17T20:48:41.491Z,10.33
2023-04-17T20:53:42.774Z,10.33
2023-04-17T20:58:43.985Z,10.20
2023-04-17T21:03:45.365Z,10.30
2023-04-17T21:08:46.737Z,10.03
2023-04-17T21:13:48.185Z,10.28
2023-04-17T21:18:51.268Z,10.30
2023-04-17T21:23:52.546Z,10.33
2023-04-17T21:28:53.832Z,10.50
2023-04-17T21:33:55.169Z,10.74
2023-04-17T21:38:56.548Z,10.77
2023-04-17T21:44:01.523Z,10.58
2023-04-17T21:49:02.856Z,10.63
2023-04-17T21:54:04.277Z,10.20
2023-04-17T21:59:05.824Z,10.26
2023-04-17T22:04:07.057Z,10.32
2023-04-17T22:09:08.808Z,10.21
2023-04-17T22:14:10.088Z,10.18
2023-04-17T22:19:11.318Z,10.03
2023-04-17T22:24:12.694Z,9.71
2023-04-17T22:29:14.125Z,9.69
2023-04-17T22:34:15.740Z,9.82
2023-04-17T22:39:17.284Z,9.49
2023-04-17T22:44:18.570Z,9.50
2023-04-17T22:49:20.104Z,9.20
2023-04-17T22:54:23.169Z,9.44
2023-04-17T22:59:24.628Z,9.35
2023-04-17T23:04:25.908Z,9.75
2023-04-17T23:09:27.143Z,9.80
2023-04-17T23:14:28.479Z,9.56
2023-04-17T23:19:29.833Z,9.65
2023-04-17T23:24:31.161Z,9.27
2023-04-17T23:29:32.522Z,9.11
2023-04-17T23:34:33.882Z,9.41
2023-04-17T23:39:35.184Z,9.41
2023-04-17T23:44:36.555Z,9.25
2023-04-17T23:49:37.808Z,9.03
2023-04-17T23:54:39.239Z,9.33
2023-04-17T23:59:40.643Z,9.38
